sensor_id;sensor_type;location;lat;lon;timestamp;temperature;humidity
25332;DHT22;13284;52.748;13.452;2023-03-01T00:01:14;-3.30;99.90
25332;DHT22;13284;52.748;13.452;2023-03-01T00:03:41;-3.40;99.90
25332;DHT22;13284;52.748;13.452;2023-03-01T00:06:07;-3.40;99.90
25332;DHT22;13284;52.748;13.452;2023-03-01T00:08:33;-3.50;99.90
25332;DHT22;13284;52.748;13.452;2023-03-01T00:11:08;-3.50;99.90
25332;DHT22;13284;52.748;13.452;2023-03-01T00:13:35;-3.50;99.90
25332;DHT22;13284;52.748;13.452;2023-03-01T00:16:05;-3.50;99.90
25332;DHT22;13284;52.748;13.452;2023-03-01T00:18:32;-3.50;99.90
25332;DHT22;13284;52.748;13.452;2023-03-01T00:20:57;-3.60;99.90
25332;DHT22;13284;52.748;13.452;2023-03-01T00:23:23;-3.60;99.90
25332;DHT22;13284;52.748;13.452;2023-03-01T00:25:49;-3.50;99.90
25332;DHT22;13284;52.748;13.452;2023-03-01T00:28:18;-3.50;99.90
25332;DHT22;13284;52.748;13.452;2023-03-01T00:30:44;-3.50;99.90
25332;DHT22;13284;52.748;13.452;2023-03-01T00:33:10;-3.50;99.90
25332;DHT22;13284;52.748;13.452;2023-03-01T00:35:36;-3.50;99.90
25332;DHT22;13284;52.748;13.452;2023-03-01T00:38:02;-3.50;99.90
25332;DHT22;13284;52.748;13.452;2023-03-01T00:40:28;-3.60;99.90
25332;DHT22;13284;52.748;13.452;2023-03-01T00:42:55;-3.60;99.90
25332;DHT22;13284;52.748;13.452;2023-03-01T00:45:21;-3.50;99.90
25332;DHT22;13284;52.748;13.452;2023-03-01T00:47:48;-3.60;99.90
25332;DHT22;13284;52.748;13.452;2023-03-01T00:50:13;-3.70;99.90
25332;DHT22;13284;52.748;13.452;2023-03-01T00:52:39;-3.70;99.90
25332;DHT22;13284;52.748;13.452;2023-03-01T00:55:05;-3.70;99.90
25332;DHT22;13284;52.748;13.452;2023-03-01T00:57:34;-3.70;99.90
25332;DHT22;13284;52.748;13.452;2023-03-01T00:59:59;-3.80;99.90
25332;DHT22;13284;52.748;13.452;2023-03-01T01:02:25;-3.80;99.90
25332;DHT22;13284;52.748;13.452;2023-03-01T01:04:51;-3.80;99.90
25332;DHT22;13284;52.748;13.452;2023-03-01T01:07:16;-3.70;99.90
25332;DHT22;13284;52.748;13.452;2023-03-01T01:09:42;-3.80;99.90
25332;DHT22;13284;52.748;13.452;2023-03-01T01:12:08;-3.80;99.90
25332;DHT22;13284;52.748;13.452;2023-03-01T01:14:36;-3.90;99.90
25332;DHT22;13284;52.748;13.452;2023-03-01T01:17:01;-3.90;99.90
25332;DHT22;13284;52.748;13.452;2023-03-01T01:19:27;-3.90;99.90
25332;DHT22;13284;52.748;13.452;2023-03-01T01:21:52;-3.90;99.90
25332;DHT22;13284;52.748;13.452;2023-03-01T01:24:18;-4.00;99.90
25332;DHT22;13284;52.748;13.452;2023-03-01T01:26:45;-3.90;99.90
25332;DHT22;13284;52.748;13.452;2023-03-01T01:29:11;-4.00;99.90
25332;DHT22;13284;52.748;13.452;2023-03-01T01:31:38;-4.00;99.90
25332;DHT22;13284;52.748;13.452;2023-03-01T01:34:05;-4.00;99.90
25332;DHT22;13284;52.748;13.452;2023-03-01T01:36:31;-4.00;99.90
25332;DHT22;13284;52.748;13.452;2023-03-01T01:38:57;-4.10;99.90
25332;DHT22;13284;52.748;13.452;2023-03-01T01:41:24;-4.10;99.90
25332;DHT22;13284;52.748;13.452;2023-03-01T01:44:23;-4.20;99.90
25332;DHT22;13284;52.748;13.452;2023-03-01T01:46:54;-4.20;99.90
25332;DHT22;13284;52.748;13.452;2023-03-01T01:49:41;-4.20;99.90
25332;DHT22;13284;52.748;13.452;2023-03-01T01:52:29;-4.20;99.90
25332;DHT22;13284;52.748;13.452;2023-03-01T01:55:07;-4.30;99.90
25332;DHT22;13284;52.748;13.452;2023-03-01T01:57:43;-4.30;99.90
25332;DHT22;13284;52.748;13.452;2023-03-01T02:00:14;-4.30;99.90
25332;DHT22;13284;52.748;13.452;2023-03-01T02:02:40;-4.30;99.90
25332;DHT22;13284;52.748;13.452;2023-03-01T02:07:58;-4.20;99.90
25332;DHT22;13284;52.748;13.452;2023-03-01T02:10:24;-4.20;99.90
25332;DHT22;13284;52.748;13.452;2023-03-01T02:12:51;-4.20;99.90
25332;DHT22;13284;52.748;13.452;2023-03-01T02:15:17;-4.20;99.90
25332;DHT22;13284;52.748;13.452;2023-03-01T02:17:42;-4.20;99.90
25332;DHT22;13284;52.748;13.452;2023-03-01T02:22:43;-4.20;99.90
25332;DHT22;13284;52.748;13.452;2023-03-01T02:27:46;-4.20;99.90
25332;DHT22;13284;52.748;13.452;2023-03-01T02:30:13;-4.30;99.90
25332;DHT22;13284;52.748;13.452;2023-03-01T02:32:42;-4.30;99.90
25332;DHT22;13284;52.748;13.452;2023-03-01T02:35:13;-4.20;99.90
25332;DHT22;13284;52.748;13.452;2023-03-01T02:37:41;-4.20;99.90
25332;DHT22;13284;52.748;13.452;2023-03-01T02:40:12;-4.20;99.90
25332;DHT22;13284;52.748;13.452;2023-03-01T02:42:50;-4.30;99.90
25332;DHT22;13284;52.748;13.452;2023-03-01T02:45:17;-4.30;99.90
25332;DHT22;13284;52.748;13.452;2023-03-01T02:47:42;-4.30;99.90
25332;DHT22;13284;52.748;13.452;2023-03-01T02:50:22;-4.30;99.90
25332;DHT22;13284;52.748;13.452;2023-03-01T02:53:01;-4.30;99.90
25332;DHT22;13284;52.748;13.452;2023-03-01T02:55:30;-4.30;99.90
25332;DHT22;13284;52.748;13.452;2023-03-01T02:57:56;-4.30;99.90
25332;DHT22;13284;52.748;13.452;2023-03-01T03:00:28;-4.30;99.90
25332;DHT22;13284;52.748;13.452;2023-03-01T03:02:55;-4.40;99.90
25332;DHT22;13284;52.748;13.452;2023-03-01T03:05:31;-4.40;99.90
25332;DHT22;13284;52.748;13.452;2023-03-01T03:07:59;-4.50;99.90
25332;DHT22;13284;52.748;13.452;2023-03-01T03:10:27;-4.50;99.90
25332;DHT22;13284;52.748;13.452;2023-03-01T03:12:59;-4.50;99.90
25332;DHT22;13284;52.748;13.452;2023-03-01T03:15:27;-4.50;99.90
25332;DHT22;13284;52.748;13.452;2023-03-01T03:17:53;-4.50;99.90
25332;DHT22;13284;52.748;13.452;2023-03-01T03:20:21;-4.50;99.90
25332;DHT22;13284;52.748;13.452;2023-03-01T03:22:49;-4.50;99.90
25332;DHT22;13284;52.748;13.452;2023-03-01T03:25:16;-4.60;99.90
25332;DHT22;13284;52.748;13.452;2023-03-01T03:27:43;-4.60;99.90
25332;DHT22;13284;52.748;13.452;2023-03-01T03:30:12;-4.60;99.90
25332;DHT22;13284;52.748;13.452;2023-03-01T03:32:43;-4.60;99.90
25332;DHT22;13284;52.748;13.452;2023-03-01T03:35:27;-4.60;99.90
25332;DHT22;13284;52.748;13.452;2023-03-01T03:37:55;-4.60;99.90
25332;DHT22;13284;52.748;13.452;2023-03-01T03:40:40;-4.60;99.90
25332;DHT22;13284;52.748;13.452;2023-03-01T03:43:11;-4.50;99.90
25332;DHT22;13284;52.748;13.452;2023-03-01T03:45:37;-4.60;99.90
25332;DHT22;13284;52.748;13.452;2023-03-01T03:48:04;-4.60;99.90
25332;DHT22;13284;52.748;13.452;2023-03-01T03:50:30;-4.70;99.90
25332;DHT22;13284;52.748;13.452;2023-03-01T03:52:56;-4.70;99.90
25332;DHT22;13284;52.748;13.452;2023-03-01T03:55:22;-4.70;99.90
25332;DHT22;13284;52.748;13.452;2023-03-01T03:57:48;-4.70;99.90
25332;DHT22;13284;52.748;13.452;2023-03-01T04:00:19;-4.80;99.90
25332;DHT22;13284;52.748;13.452;2023-03-01T04:02:46;-4.90;99.90
25332;DHT22;13284;52.748;13.452;2023-03-01T04:05:15;-4.80;99.90
25332;DHT22;13284;52.748;13.452;2023-03-01T04:07:41;-4.70;99.90
25332;DHT22;13284;52.748;13.452;2023-03-01T04:10:11;-4.80;99.90
25332;DHT22;13284;52.748;13.452;2023-03-01T04:12:37;-4.80;99.90
25332;DHT22;13284;52.748;13.452;2023-03-01T04:15:04;-4.80;99.90
25332;DHT22;13284;52.748;13.452;2023-03-01T04:17:43;-4.80;99.90
25332;DHT22;13284;52.748;13.452;2023-03-01T04:20:11;-4.80;99.90
25332;DHT22;13284;52.748;13.452;2023-03-01T04:22:38;-4.80;99.90
25332;DHT22;13284;52.748;13.452;2023-03-01T04:25:04;-4.90;99.90
25332;DHT22;13284;52.748;13.452;2023-03-01T04:27:35;-4.90;99.90
25332;DHT22;13284;52.748;13.452;2023-03-01T04:30:03;-4.90;99.90
25332;DHT22;13284;52.748;13.452;2023-03-01T04:32:28;-4.80;99.90
25332;DHT22;13284;52.748;13.452;2023-03-01T04:34:54;-4.80;99.90
25332;DHT22;13284;52.748;13.452;2023-03-01T04:37:19;-4.70;99.90
25332;DHT22;13284;52.748;13.452;2023-03-01T04:39:45;-4.70;99.90
25332;DHT22;13284;52.748;13.452;2023-03-01T04:42:13;-4.70;99.90
25332;DHT22;13284;52.748;13.452;2023-03-01T04:44:39;-4.80;99.90
25332;DHT22;13284;52.748;13.452;2023-03-01T04:47:04;-4.80;99.90
25332;DHT22;13284;52.748;13.452;2023-03-01T04:49:30;-4.90;99.90
25332;DHT22;13284;52.748;13.452;2023-03-01T04:51:56;-4.90;99.90
25332;DHT22;13284;52.748;13.452;2023-03-01T04:54:33;-4.90;99.90
25332;DHT22;13284;52.748;13.452;2023-03-01T04:57:00;-4.80;99.90
25332;DHT22;13284;52.748;13.452;2023-03-01T04:59:26;-4.90;99.90
25332;DHT22;13284;52.748;13.452;2023-03-01T05:01:52;-4.90;99.90
25332;DHT22;13284;52.748;13.452;2023-03-01T05:04:21;-5.00;99.90
25332;DHT22;13284;52.748;13.452;2023-03-01T05:06:47;-5.00;99.90
25332;DHT22;13284;52.748;13.452;2023-03-01T05:09:13;-5.00;99.90
25332;DHT22;13284;52.748;13.452;2023-03-01T05:11:39;-4.90;99.90
25332;DHT22;13284;52.748;13.452;2023-03-01T05:14:05;-5.00;99.90
25332;DHT22;13284;52.748;13.452;2023-03-01T05:16:31;-5.00;99.90
25332;DHT22;13284;52.748;13.452;2023-03-01T05:18:58;-5.10;99.90
25332;DHT22;13284;52.748;13.452;2023-03-01T05:21:23;-5.10;99.90
25332;DHT22;13284;52.748;13.452;2023-03-01T05:23:49;-5.10;99.90
25332;DHT22;13284;52.748;13.452;2023-03-01T05:26:16;-5.10;99.90
25332;DHT22;13284;52.748;13.452;2023-03-01T05:28:43;-5.10;99.90
25332;DHT22;13284;52.748;13.452;2023-03-01T05:31:08;-5.10;99.90
25332;DHT22;13284;52.748;13.452;2023-03-01T05:33:39;-5.10;99.90
25332;DHT22;13284;52.748;13.452;2023-03-01T05:36:08;-5.10;99.90
25332;DHT22;13284;52.748;13.452;2023-03-01T05:38:35;-5.10;99.90
25332;DHT22;13284;52.748;13.452;2023-03-01T05:41:01;-5.10;99.90
25332;DHT22;13284;52.748;13.452;2023-03-01T05:43:30;-5.10;99.90
25332;DHT22;13284;52.748;13.452;2023-03-01T05:45:57;-5.10;99.90
25332;DHT22;13284;52.748;13.452;2023-03-01T05:48:23;-5.10;99.90
25332;DHT22;13284;52.748;13.452;2023-03-01T05:50:49;-5.10;99.90
25332;DHT22;13284;52.748;13.452;2023-03-01T05:53:17;-5.10;99.90
25332;DHT22;13284;52.748;13.452;2023-03-01T05:55:44;-5.20;99.90
25332;DHT22;13284;52.748;13.452;2023-03-01T05:58:15;-5.20;99.90
25332;DHT22;13284;52.748;13.452;2023-03-01T06:00:42;-5.20;99.90
25332;DHT22;13284;52.748;13.452;2023-03-01T06:03:10;-5.20;99.90
25332;DHT22;13284;52.748;13.452;2023-03-01T06:05:36;-5.20;99.90
25332;DHT22;13284;52.748;13.452;2023-03-01T06:08:03;-5.20;99.90
25332;DHT22;13284;52.748;13.452;2023-03-01T06:10:29;-5.20;99.90
25332;DHT22;13284;52.748;13.452;2023-03-01T06:12:55;-5.20;99.90
25332;DHT22;13284;52.748;13.452;2023-03-01T06:15:24;-5.20;99.90
25332;DHT22;13284;52.748;13.452;2023-03-01T06:17:50;-5.20;99.90
25332;DHT22;13284;52.748;13.452;2023-03-01T06:20:18;-5.10;99.90
25332;DHT22;13284;52.748;13.452;2023-03-01T06:22:44;-5.00;99.90
25332;DHT22;13284;52.748;13.452;2023-03-01T06:25:12;-5.00;99.90
25332;DHT22;13284;52.748;13.452;2023-03-01T06:27:38;-5.00;99.90
25332;DHT22;13284;52.748;13.452;2023-03-01T06:30:04;-4.90;99.90
25332;DHT22;13284;52.748;13.452;2023-03-01T06:32:30;-4.90;99.90
25332;DHT22;13284;52.748;13.452;2023-03-01T06:34:56;-4.80;99.90
25332;DHT22;13284;52.748;13.452;2023-03-01T06:37:26;-4.80;99.90
25332;DHT22;13284;52.748;13.452;2023-03-01T06:39:52;-4.80;99.90
25332;DHT22;13284;52.748;13.452;2023-03-01T06:42:17;-4.80;99.90
25332;DHT22;13284;52.748;13.452;2023-03-01T06:44:44;-4.70;99.90
25332;DHT22;13284;52.748;13.452;2023-03-01T06:47:10;-4.70;99.90
25332;DHT22;13284;52.748;13.452;2023-03-01T06:49:36;-4.60;99.90
25332;DHT22;13284;52.748;13.452;2023-03-01T06:52:01;-4.60;99.90
25332;DHT22;13284;52.748;13.452;2023-03-01T06:54:27;-4.50;99.90
25332;DHT22;13284;52.748;13.452;2023-03-01T06:56:53;-4.50;99.90
25332;DHT22;13284;52.748;13.452;2023-03-01T06:59:19;-4.40;99.90
25332;DHT22;13284;52.748;13.452;2023-03-01T07:01:44;-4.40;99.90
25332;DHT22;13284;52.748;13.452;2023-03-01T07:04:11;-4.30;99.90
25332;DHT22;13284;52.748;13.452;2023-03-01T07:06:37;-4.20;99.90
25332;DHT22;13284;52.748;13.452;2023-03-01T07:09:03;-4.20;99.90
25332;DHT22;13284;52.748;13.452;2023-03-01T07:11:28;-4.10;99.90
25332;DHT22;13284;52.748;13.452;2023-03-01T07:13:54;-4.00;99.90
25332;DHT22;13284;52.748;13.452;2023-03-01T07:16:20;-3.90;99.90
25332;DHT22;13284;52.748;13.452;2023-03-01T07:18:46;-3.80;99.90
25332;DHT22;13284;52.748;13.452;2023-03-01T07:21:13;-3.70;99.90
25332;DHT22;13284;52.748;13.452;2023-03-01T07:23:39;-3.60;99.90
25332;DHT22;13284;52.748;13.452;2023-03-01T07:26:05;-3.40;99.90
25332;DHT22;13284;52.748;13.452;2023-03-01T07:28:33;-3.30;99.90
25332;DHT22;13284;52.748;13.452;2023-03-01T07:31:05;-3.10;99.90
25332;DHT22;13284;52.748;13.452;2023-03-01T07:33:31;-3.00;99.90
25332;DHT22;13284;52.748;13.452;2023-03-01T07:36:07;-3.00;99.90
25332;DHT22;13284;52.748;13.452;2023-03-01T07:38:33;-2.90;99.90
25332;DHT22;13284;52.748;13.452;2023-03-01T07:41:04;-2.90;99.90
25332;DHT22;13284;52.748;13.452;2023-03-01T07:43:31;-2.80;99.90
25332;DHT22;13284;52.748;13.452;2023-03-01T07:46:03;-2.60;99.90
25332;DHT22;13284;52.748;13.452;2023-03-01T07:48:30;-2.50;99.90
25332;DHT22;13284;52.748;13.452;2023-03-01T07:51:00;-2.40;99.90
25332;DHT22;13284;52.748;13.452;2023-03-01T07:53:27;-2.20;99.90
25332;DHT22;13284;52.748;13.452;2023-03-01T07:56:10;-2.00;99.90
25332;DHT22;13284;52.748;13.452;2023-03-01T07:58:42;-1.80;99.90
25332;DHT22;13284;52.748;13.452;2023-03-01T08:01:11;-1.70;99.90
25332;DHT22;13284;52.748;13.452;2023-03-01T08:03:37;-1.50;99.90
25332;DHT22;13284;52.748;13.452;2023-03-01T08:06:07;-1.50;99.90
25332;DHT22;13284;52.748;13.452;2023-03-01T08:08:33;-1.40;99.90
25332;DHT22;13284;52.748;13.452;2023-03-01T08:11:00;-1.30;99.90
25332;DHT22;13284;52.748;13.452;2023-03-01T08:13:30;-1.20;99.90
25332;DHT22;13284;52.748;13.452;2023-03-01T08:16:04;-1.20;99.90
25332;DHT22;13284;52.748;13.452;2023-03-01T08:18:30;-1.10;99.90
25332;DHT22;13284;52.748;13.452;2023-03-01T08:20:55;-1.00;99.90
25332;DHT22;13284;52.748;13.452;2023-03-01T08:23:21;-0.80;99.90
25332;DHT22;13284;52.748;13.452;2023-03-01T08:25:46;-0.70;99.90
25332;DHT22;13284;52.748;13.452;2023-03-01T08:28:12;-0.50;99.90
25332;DHT22;13284;52.748;13.452;2023-03-01T08:30:37;-0.30;99.90
25332;DHT22;13284;52.748;13.452;2023-03-01T08:33:03;-0.10;99.90
25332;DHT22;13284;52.748;13.452;2023-03-01T08:35:28;0.00;99.90
25332;DHT22;13284;52.748;13.452;2023-03-01T08:37:54;0.20;99.90
25332;DHT22;13284;52.748;13.452;2023-03-01T08:40:19;0.30;99.90
25332;DHT22;13284;52.748;13.452;2023-03-01T08:42:45;0.50;99.90
25332;DHT22;13284;52.748;13.452;2023-03-01T08:45:11;0.60;99.90
25332;DHT22;13284;52.748;13.452;2023-03-01T08:47:37;0.80;99.90
25332;DHT22;13284;52.748;13.452;2023-03-01T08:50:03;0.90;99.90
25332;DHT22;13284;52.748;13.452;2023-03-01T08:52:29;1.00;99.90
25332;DHT22;13284;52.748;13.452;2023-03-01T08:54:55;1.10;99.90
25332;DHT22;13284;52.748;13.452;2023-03-01T08:57:21;1.40;99.90
25332;DHT22;13284;52.748;13.452;2023-03-01T08:59:46;1.40;99.90
25332;DHT22;13284;52.748;13.452;2023-03-01T09:02:17;1.50;99.90
25332;DHT22;13284;52.748;13.452;2023-03-01T09:04:43;1.60;99.90
25332;DHT22;13284;52.748;13.452;2023-03-01T09:07:10;1.90;99.90
25332;DHT22;13284;52.748;13.452;2023-03-01T09:09:35;2.00;99.90
25332;DHT22;13284;52.748;13.452;2023-03-01T09:12:01;2.10;99.90
25332;DHT22;13284;52.748;13.452;2023-03-01T09:14:27;2.30;99.90
25332;DHT22;13284;52.748;13.452;2023-03-01T09:16:53;2.50;99.90
25332;DHT22;13284;52.748;13.452;2023-03-01T09:19:18;2.80;99.90
25332;DHT22;13284;52.748;13.452;2023-03-01T09:21:44;2.90;99.90
25332;DHT22;13284;52.748;13.452;2023-03-01T09:24:23;3.20;99.90
25332;DHT22;13284;52.748;13.452;2023-03-01T09:26:49;3.30;99.90
25332;DHT22;13284;52.748;13.452;2023-03-01T09:29:15;3.80;99.90
25332;DHT22;13284;52.748;13.452;2023-03-01T09:31:42;4.20;99.90
25332;DHT22;13284;52.748;13.452;2023-03-01T09:34:08;4.60;99.90
25332;DHT22;13284;52.748;13.452;2023-03-01T09:36:35;5.00;99.90
25332;DHT22;13284;52.748;13.452;2023-03-01T09:39:00;5.50;99.90
25332;DHT22;13284;52.748;13.452;2023-03-01T09:44:29;5.90;99.90
25332;DHT22;13284;52.748;13.452;2023-03-01T09:46:57;6.40;99.90
25332;DHT22;13284;52.748;13.452;2023-03-01T09:49:29;6.60;99.90
25332;DHT22;13284;52.748;13.452;2023-03-01T09:54:24;6.50;99.90
25332;DHT22;13284;52.748;13.452;2023-03-01T09:56:59;6.20;99.90
25332;DHT22;13284;52.748;13.452;2023-03-01T09:59:36;6.50;99.90
25332;DHT22;13284;52.748;13.452;2023-03-01T10:10:39;6.60;99.90
25332;DHT22;13284;52.748;13.452;2023-03-01T10:16:01;6.80;99.90
25332;DHT22;13284;52.748;13.452;2023-03-01T10:18:31;6.90;99.90
25332;DHT22;13284;52.748;13.452;2023-03-01T10:21:03;7.00;99.90
25332;DHT22;13284;52.748;13.452;2023-03-01T10:23:32;7.20;99.90
25332;DHT22;13284;52.748;13.452;2023-03-01T10:26:51;7.30;99.90
25332;DHT22;13284;52.748;13.452;2023-03-01T10:28:58;7.60;99.90
25332;DHT22;13284;52.748;13.452;2023-03-01T10:31:40;7.70;99.90
25332;DHT22;13284;52.748;13.452;2023-03-01T10:34:14;7.80;99.90
25332;DHT22;13284;52.748;13.452;2023-03-01T10:36:42;8.30;99.90
25332;DHT22;13284;52.748;13.452;2023-03-01T10:39:20;9.00;99.90
25332;DHT22;13284;52.748;13.452;2023-03-01T10:42:22;9.40;99.90
25332;DHT22;13284;52.748;13.452;2023-03-01T10:44:50;9.50;99.90
25332;DHT22;13284;52.748;13.452;2023-03-01T10:47:24;10.00;99.90
25332;DHT22;13284;52.748;13.452;2023-03-01T10:49:57;10.50;99.90
25332;DHT22;13284;52.748;13.452;2023-03-01T10:52:25;10.70;99.90
25332;DHT22;13284;52.748;13.452;2023-03-01T10:54:59;10.60;99.90
25332;DHT22;13284;52.748;13.452;2023-03-01T10:57:35;9.90;99.90
25332;DHT22;13284;52.748;13.452;2023-03-01T11:00:19;9.80;99.90
25332;DHT22;13284;52.748;13.452;2023-03-01T11:03:01;9.40;99.90
25332;DHT22;13284;52.748;13.452;2023-03-01T11:05:27;9.20;99.90
25332;DHT22;13284;52.748;13.452;2023-03-01T11:07:57;9.90;99.90
25332;DHT22;13284;52.748;13.452;2023-03-01T11:10:30;10.40;99.90
25332;DHT22;13284;52.748;13.452;2023-03-01T11:13:15;9.80;99.90
25332;DHT22;13284;52.748;13.452;2023-03-01T11:15:42;9.20;99.90
25332;DHT22;13284;52.748;13.452;2023-03-01T11:18:23;9.90;99.90
25332;DHT22;13284;52.748;13.452;2023-03-01T11:20:51;10.60;99.90
25332;DHT22;13284;52.748;13.452;2023-03-01T11:23:18;10.90;99.90
25332;DHT22;13284;52.748;13.452;2023-03-01T11:25:54;11.00;99.90
25332;DHT22;13284;52.748;13.452;2023-03-01T11:28:21;10.40;99.90
25332;DHT22;13284;52.748;13.452;2023-03-01T11:31:02;11.00;99.90
25332;DHT22;13284;52.748;13.452;2023-03-01T11:36:31;10.40;99.90
25332;DHT22;13284;52.748;13.452;2023-03-01T11:39:10;10.60;99.90
25332;DHT22;13284;52.748;13.452;2023-03-01T11:41:40;10.70;99.90
25332;DHT22;13284;52.748;13.452;2023-03-01T11:44:19;10.90;99.90
25332;DHT22;13284;52.748;13.452;2023-03-01T11:46:52;10.70;99.90
25332;DHT22;13284;52.748;13.452;2023-03-01T11:51:53;11.10;99.90
25332;DHT22;13284;52.748;13.452;2023-03-01T11:54:44;11.10;99.90
25332;DHT22;13284;52.748;13.452;2023-03-01T11:57:37;11.00;99.90
25332;DHT22;13284;52.748;13.452;2023-03-01T12:03:27;11.20;99.90
25332;DHT22;13284;52.748;13.452;2023-03-01T12:08:48;11.90;99.90
25332;DHT22;13284;52.748;13.452;2023-03-01T12:13:55;11.80;99.90
25332;DHT22;13284;52.748;13.452;2023-03-01T12:19:33;12.20;99.90
25332;DHT22;13284;52.748;13.452;2023-03-01T12:33:34;11.50;99.90
25332;DHT22;13284;52.748;13.452;2023-03-01T12:36:15;11.30;99.90
25332;DHT22;13284;52.748;13.452;2023-03-01T12:38:49;11.20;99.90
25332;DHT22;13284;52.748;13.452;2023-03-01T12:41:33;12.00;99.90
25332;DHT22;13284;52.748;13.452;2023-03-01T12:44:22;12.00;99.90
25332;DHT22;13284;52.748;13.452;2023-03-01T12:49:54;12.70;99.90
25332;DHT22;13284;52.748;13.452;2023-03-01T12:55:33;13.10;99.90
25332;DHT22;13284;52.748;13.452;2023-03-01T13:00:37;13.40;99.90
25332;DHT22;13284;52.748;13.452;2023-03-01T13:03:19;12.90;98.30
25332;DHT22;13284;52.748;13.452;2023-03-01T13:08:39;12.70;97.00
25332;DHT22;13284;52.748;13.452;2023-03-01T13:11:16;12.40;97.80
25332;DHT22;13284;52.748;13.452;2023-03-01T13:13:42;12.40;97.70
25332;DHT22;13284;52.748;13.452;2023-03-01T13:21:39;12.70;96.90
25332;DHT22;13284;52.748;13.452;2023-03-01T13:24:24;13.00;97.30
25332;DHT22;13284;52.748;13.452;2023-03-01T13:29:53;12.70;96.50
25332;DHT22;13284;52.748;13.452;2023-03-01T13:32:29;12.50;97.00
25332;DHT22;13284;52.748;13.452;2023-03-01T13:37:43;12.50;96.40
25332;DHT22;13284;52.748;13.452;2023-03-01T13:43:29;12.40;97.70
25332;DHT22;13284;52.748;13.452;2023-03-01T13:45:39;11.90;97.90
25332;DHT22;13284;52.748;13.452;2023-03-01T13:48:14;12.10;97.60
25332;DHT22;13284;52.748;13.452;2023-03-01T13:50:48;12.00;98.30
25332;DHT22;13284;52.748;13.452;2023-03-01T13:53:18;12.00;97.40
25332;DHT22;13284;52.748;13.452;2023-03-01T13:55:46;12.10;97.90
25332;DHT22;13284;52.748;13.452;2023-03-01T14:01:07;11.50;99.20
25332;DHT22;13284;52.748;13.452;2023-03-01T14:03:45;11.80;98.30
25332;DHT22;13284;52.748;13.452;2023-03-01T14:06:20;12.00;99.70
25332;DHT22;13284;52.748;13.452;2023-03-01T14:08:48;12.20;99.00
25332;DHT22;13284;52.748;13.452;2023-03-01T14:21:42;11.70;99.90
25332;DHT22;13284;52.748;13.452;2023-03-01T14:24:17;11.50;99.90
25332;DHT22;13284;52.748;13.452;2023-03-01T14:26:43;11.40;99.90
25332;DHT22;13284;52.748;13.452;2023-03-01T14:29:41;11.30;99.90
25332;DHT22;13284;52.748;13.452;2023-03-01T14:32:24;11.40;99.90
25332;DHT22;13284;52.748;13.452;2023-03-01T14:34:50;11.30;99.90
25332;DHT22;13284;52.748;13.452;2023-03-01T14:37:29;11.30;99.90
25332;DHT22;13284;52.748;13.452;2023-03-01T14:39:58;11.00;99.90
25332;DHT22;13284;52.748;13.452;2023-03-01T14:42:26;11.10;99.90
25332;DHT22;13284;52.748;13.452;2023-03-01T14:44:55;11.30;99.90
25332;DHT22;13284;52.748;13.452;2023-03-01T14:47:32;11.20;99.90
25332;DHT22;13284;52.748;13.452;2023-03-01T14:50:04;11.20;99.90
25332;DHT22;13284;52.748;13.452;2023-03-01T14:52:37;11.20;99.90
25332;DHT22;13284;52.748;13.452;2023-03-01T14:55:07;10.80;99.90
25332;DHT22;13284;52.748;13.452;2023-03-01T14:57:43;11.10;99.90
25332;DHT22;13284;52.748;13.452;2023-03-01T15:00:16;10.70;99.90
25332;DHT22;13284;52.748;13.452;2023-03-01T15:02:43;10.60;99.90
25332;DHT22;13284;52.748;13.452;2023-03-01T15:05:09;10.20;99.90
25332;DHT22;13284;52.748;13.452;2023-03-01T15:07:38;10.50;99.90
25332;DHT22;13284;52.748;13.452;2023-03-01T15:10:06;10.40;99.90
25332;DHT22;13284;52.748;13.452;2023-03-01T15:15:01;10.50;99.90
25332;DHT22;13284;52.748;13.452;2023-03-01T15:17:44;10.40;99.90
25332;DHT22;13284;52.748;13.452;2023-03-01T15:20:18;10.10;99.90
25332;DHT22;13284;52.748;13.452;2023-03-01T15:22:47;10.20;99.90
25332;DHT22;13284;52.748;13.452;2023-03-01T15:25:18;10.20;99.90
25332;DHT22;13284;52.748;13.452;2023-03-01T15:27:48;10.10;99.90
25332;DHT22;13284;52.748;13.452;2023-03-01T15:30:25;9.90;99.90
25332;DHT22;13284;52.748;13.452;2023-03-01T15:33:16;9.80;99.90
25332;DHT22;13284;52.748;13.452;2023-03-01T15:35:47;9.60;99.90
25332;DHT22;13284;52.748;13.452;2023-03-01T15:38:34;9.60;99.90
25332;DHT22;13284;52.748;13.452;2023-03-01T15:41:03;9.30;99.90
25332;DHT22;13284;52.748;13.452;2023-03-01T15:43:46;9.20;99.90
25332;DHT22;13284;52.748;13.452;2023-03-01T15:46:31;9.00;99.90
25332;DHT22;13284;52.748;13.452;2023-03-01T15:49:00;9.00;99.90
25332;DHT22;13284;52.748;13.452;2023-03-01T15:51:35;8.90;99.90
25332;DHT22;13284;52.748;13.452;2023-03-01T15:54:09;8.90;99.90
25332;DHT22;13284;52.748;13.452;2023-03-01T15:56:37;8.70;99.90
25332;DHT22;13284;52.748;13.452;2023-03-01T15:59:03;8.60;99.90
25332;DHT22;13284;52.748;13.452;2023-03-01T16:01:29;8.50;99.90
25332;DHT22;13284;52.748;13.452;2023-03-01T16:03:54;8.40;99.90
25332;DHT22;13284;52.748;13.452;2023-03-01T16:06:20;8.40;99.90
25332;DHT22;13284;52.748;13.452;2023-03-01T16:08:45;8.30;99.90
25332;DHT22;13284;52.748;13.452;2023-03-01T16:11:17;8.10;99.90
25332;DHT22;13284;52.748;13.452;2023-03-01T16:13:43;8.00;99.90
25332;DHT22;13284;52.748;13.452;2023-03-01T16:16:13;8.00;99.90
25332;DHT22;13284;52.748;13.452;2023-03-01T16:18:42;7.90;99.90
25332;DHT22;13284;52.748;13.452;2023-03-01T16:21:16;7.70;99.90
25332;DHT22;13284;52.748;13.452;2023-03-01T16:23:43;7.50;99.90
25332;DHT22;13284;52.748;13.452;2023-03-01T16:26:10;7.50;99.90
25332;DHT22;13284;52.748;13.452;2023-03-01T16:28:35;7.30;99.90
25332;DHT22;13284;52.748;13.452;2023-03-01T16:31:01;7.00;99.90
25332;DHT22;13284;52.748;13.452;2023-03-01T16:33:27;6.90;99.90
25332;DHT22;13284;52.748;13.452;2023-03-01T16:35:52;6.70;99.90
25332;DHT22;13284;52.748;13.452;2023-03-01T16:38:18;6.50;99.90
25332;DHT22;13284;52.748;13.452;2023-03-01T16:40:48;6.50;99.90
25332;DHT22;13284;52.748;13.452;2023-03-01T16:43:14;6.30;99.90
25332;DHT22;13284;52.748;13.452;2023-03-01T16:45:39;6.10;99.90
25332;DHT22;13284;52.748;13.452;2023-03-01T16:48:06;6.00;99.90
25332;DHT22;13284;52.748;13.452;2023-03-01T16:50:31;5.90;99.90
25332;DHT22;13284;52.748;13.452;2023-03-01T16:52:57;5.80;99.90
25332;DHT22;13284;52.748;13.452;2023-03-01T16:55:25;5.70;99.90
25332;DHT22;13284;52.748;13.452;2023-03-01T16:57:56;5.50;99.90
25332;DHT22;13284;52.748;13.452;2023-03-01T17:00:25;5.30;99.90
25332;DHT22;13284;52.748;13.452;2023-03-01T17:02:50;5.20;99.90
25332;DHT22;13284;52.748;13.452;2023-03-01T17:05:17;5.10;99.90
25332;DHT22;13284;52.748;13.452;2023-03-01T17:07:46;4.90;99.90
25332;DHT22;13284;52.748;13.452;2023-03-01T17:10:11;4.70;99.90